»·PEaware :: AAR304 KLAX-KSFO

AAR304 :: KLAX-KSFO

FLIGHT INFORMATION

Flight Status: Arrived
Operator:
Asiana Airlines
More flights by this operator :: More flights under this callsign
Pilot: Zachary C. (8151)
Aircraft: BOEING 777-200
(B772)
More flights by this aircraft type
Origin: KLAX Los Angeles Intl
United States
Destination: KSFO San Francisco Intl
United States
More flights between these airports :: More routes between these airports
Route: FIXIT2 RZS J501 ZONAL SERFR SERFR1
File this flight plan on PilotEdge
Remarks:
Altitude:
(Current/Filed)
34,000ft
Speed:
(Current/Filed)
450kts
Departed: 13-Nov-15 08:27 PM
Arrived: 13-Nov-15 09:21 PM
Distance/Time
Traveled:
294nm/0:54
Distance/Time
To Go:
Arrived

Flight Plot

Page will automatically refresh every two minutes.


Map Options




Map Legend


Flown Route
Filed Route
Departure Airport
Arrival Airport
Navaid (VOR, NDB)
Fix

Horizontal Profiles

Position Reports

Time Latitude Longitude Heading Altitude Ground
Speed
13-Nov-15 19:56 33.940660 -118.403697 263 143ft 0kts
13-Nov-15 19:57 33.940660 -118.403697 263 143ft 0kts
13-Nov-15 19:58 33.940660 -118.403697 263 143ft 0kts
13-Nov-15 19:59 33.940660 -118.403697 263 142ft 0kts
13-Nov-15 20:00 33.940660 -118.403697 263 142ft 0kts
13-Nov-15 20:01 33.940660 -118.403697 263 142ft 0kts
13-Nov-15 20:02 33.940660 -118.403697 263 142ft 0kts
13-Nov-15 20:03 33.940660 -118.403697 263 142ft 0kts
13-Nov-15 20:04 33.940660 -118.403697 263 142ft 0kts
13-Nov-15 20:05 33.940660 -118.403697 263 142ft 0kts
13-Nov-15 20:06 33.940660 -118.403697 263 142ft 0kts
13-Nov-15 20:07 33.940660 -118.403697 263 142ft 0kts
13-Nov-15 20:08 33.940660 -118.403697 263 142ft 0kts
13-Nov-15 20:09 33.940660 -118.403697 263 142ft 0kts
13-Nov-15 20:10 33.940660 -118.403697 263 142ft 0kts
13-Nov-15 20:11 33.940660 -118.403697 263 142ft 0kts
13-Nov-15 20:12 33.940983 -118.403226 168 142ft 2kts
13-Nov-15 20:13 33.940994 -118.403229 168 142ft 0kts
13-Nov-15 20:14 33.940994 -118.403229 168 142ft 0kts
13-Nov-15 20:15 33.940994 -118.403229 168 142ft 0kts
13-Nov-15 20:16 33.940994 -118.403229 168 142ft 0kts
13-Nov-15 20:17 33.940994 -118.403229 168 142ft 0kts
13-Nov-15 20:18 33.940664 -118.403153 169 142ft 6kts
13-Nov-15 20:19 33.939455 -118.401529 84 142ft 10kts
13-Nov-15 20:20 33.940033 -118.395686 82 142ft 30kts
13-Nov-15 20:21 33.940864 -118.386770 83 142ft 24kts
13-Nov-15 20:22 33.940589 -118.382231 86 142ft 11kts
13-Nov-15 20:23 33.940702 -118.380863 99 142ft 0kts
13-Nov-15 20:24 33.939709 -118.381446 261 142ft 24kts
13-Nov-15 20:25 33.934815 -118.430121 262 1392ft 221kts
13-Nov-15 20:26 33.928140 -118.503914 264 4992ft 239kts
13-Nov-15 20:27 33.920891 -118.590401 265 7402ft 276kts
13-Nov-15 20:28 33.916990 -118.684974 270 10951ft 297kts
13-Nov-15 20:29 33.915543 -118.786486 270 13004ft 309kts
13-Nov-15 20:30 33.924744 -118.887093 302 13022ft 303kts
13-Nov-15 20:31 33.974670 -118.975692 324 13020ft 326kts
13-Nov-15 20:32 34.061740 -118.999570 354 15802ft 334kts
13-Nov-15 20:33 34.148343 -119.028694 320 18614ft 355kts
13-Nov-15 20:34 34.200037 -119.126801 301 21112ft 373kts
13-Nov-15 20:35 34.253124 -119.235600 301 23005ft 385kts
13-Nov-15 20:36 34.306956 -119.346483 301 23040ft 390kts
13-Nov-15 20:37 34.361690 -119.460687 301 25450ft 403kts
13-Nov-15 20:38 34.417888 -119.578390 301 27498ft 420kts
13-Nov-15 20:39 34.476491 -119.701568 301 29373ft 435kts
13-Nov-15 20:40 34.548028 -119.812209 317 31687ft 431kts
13-Nov-15 20:41 34.635952 -119.908925 318 33239ft 444kts
13-Nov-15 20:42 34.727117 -120.008749 318 34013ft 464kts
13-Nov-15 20:43 34.807835 -120.097374 318 33999ft 481kts
13-Nov-15 20:44 34.905230 -120.203872 317 34000ft 479kts
13-Nov-15 20:45 35.002946 -120.311743 317 33999ft 479kts
13-Nov-15 20:46 35.100686 -120.420068 317 33999ft 479kts
13-Nov-15 20:47 35.197247 -120.527451 317 33999ft 479kts
13-Nov-15 20:48 35.293053 -120.634352 317 33999ft 479kts
13-Nov-15 20:49 35.389449 -120.742269 317 33999ft 479kts
13-Nov-15 20:50 35.488510 -120.848517 324 34000ft 479kts
13-Nov-15 20:51 35.593966 -120.942061 324 33999ft 479kts
13-Nov-15 20:52 35.700873 -121.036915 324 33994ft 477kts
13-Nov-15 20:53 35.805622 -121.129861 324 31417ft 480kts
13-Nov-15 20:54 35.910268 -121.222862 323 30392ft 441kts
13-Nov-15 20:55 36.006664 -121.309195 323 28587ft 428kts
13-Nov-15 20:56 36.101554 -121.390441 328 26761ft 416kts
13-Nov-15 20:57 36.196765 -121.464797 327 24982ft 405kts
13-Nov-15 20:58 36.287714 -121.535999 327 23281ft 394kts
13-Nov-15 20:59 36.378546 -121.607309 327 21574ft 384kts
13-Nov-15 21:00 36.466382 -121.676454 327 20021ft 376kts
13-Nov-15 21:01 36.552470 -121.744447 327 19660ft 369kts
13-Nov-15 21:02 36.635562 -121.810281 327 17970ft 364kts
13-Nov-15 21:03 36.719097 -121.876618 327 16394ft 355kts
13-Nov-15 21:04 36.810040 -121.913503 347 14763ft 347kts
13-Nov-15 21:05 36.901370 -121.939052 347 13276ft 339kts
13-Nov-15 21:06 36.981432 -121.964912 343 12148ft 288kts
13-Nov-15 21:07 37.051389 -121.998535 352 10810ft 281kts
13-Nov-15 21:08 37.124600 -122.022213 343 9626ft 276kts
13-Nov-15 21:09 37.195888 -122.049397 343 8226ft 269kts
13-Nov-15 21:10 37.263899 -122.075715 343 6165ft 266kts
13-Nov-15 21:11 37.331673 -122.102014 342 5907ft 262kts
13-Nov-15 21:12 37.397354 -122.127440 342 5385ft 248kts
13-Nov-15 21:13 37.461096 -122.152431 344 4363ft 245kts
13-Nov-15 21:14 37.523699 -122.170618 339 3673ft 212kts
13-Nov-15 21:15 37.555452 -122.224945 298 2948ft 197kts
13-Nov-15 21:16 37.580418 -122.284031 297 1421ft 172kts
13-Nov-15 21:17 37.600104 -122.330807 297 539ft 141kts
13-Nov-15 21:18 37.618336 -122.374195 297 31ft 117kts
13-Nov-15 21:19 37.622712 -122.385601 222 30ft 0kts
13-Nov-15 21:20 37.622709 -122.385604 222 30ft 0kts
13-Nov-15 21:21 37.622514 -122.385843 216 30ft 0kts
13-Nov-15 21:22 37.622065 -122.386129 207 30ft 7kts
13-Nov-15 21:23 37.621134 -122.388407 209 30ft 5kts
13-Nov-15 21:24 37.620965 -122.388524 208 30ft 0kts

Navigation Log

Ident Type
1. KLAX Airport
2. RZS Navaid
3. PEGRS Fix
4. ZONAL Fix
5. KSFO Airport